sensor_id;sensor_type;location;lat;lon;timestamp;pressure;altitude;pressure_sealevel;temperature;humidity
75972;BME280;64651;47.540;19.088;2023-04-01T00:02:28;99070.91;;;9.67;84.03
75972;BME280;64651;47.540;19.088;2023-04-01T00:07:31;99074.03;;;9.88;80.13
75972;BME280;64651;47.540;19.088;2023-04-01T00:12:34;99071.16;;;10.07;78.16
75972;BME280;64651;47.540;19.088;2023-04-01T00:17:37;99071.16;;;10.21;77.31
75972;BME280;64651;47.540;19.088;2023-04-01T00:22:40;99081.41;;;10.15;77.71
75972;BME280;64651;47.540;19.088;2023-04-01T00:27:42;99072.59;;;10.04;79.01
75972;BME280;64651;47.540;19.088;2023-04-01T00:32:45;99079.91;;;9.95;79.96
75972;BME280;64651;47.540;19.088;2023-04-01T00:37:48;99075.59;;;9.81;81.20
75972;BME280;64651;47.540;19.088;2023-04-01T00:42:50;99074.03;;;9.88;80.28
75972;BME280;64651;47.540;19.088;2023-04-01T00:47:52;99067.53;;;9.84;80.52
75972;BME280;64651;47.540;19.088;2023-04-01T00:52:55;99069.56;;;9.92;79.34
75972;BME280;64651;47.540;19.088;2023-04-01T00:57:59;99051.44;;;10.05;78.22
75972;BME280;64651;47.540;19.088;2023-04-01T01:03:02;99058.31;;;10.16;77.20
75972;BME280;64651;47.540;19.088;2023-04-01T01:08:13;99047.87;;;10.18;76.94
75972;BME280;64651;47.540;19.088;2023-04-01T01:18:38;99040.31;;;10.24;76.46
75972;BME280;64651;47.540;19.088;2023-04-01T01:34:21;99042.66;;;10.16;77.26
75972;BME280;64651;47.540;19.088;2023-04-01T01:39:26;99040.31;;;10.24;76.17
75972;BME280;64651;47.540;19.088;2023-04-01T01:44:32;99043.25;;;10.27;75.73
75972;BME280;64651;47.540;19.088;2023-04-01T01:49:36;99046.50;;;10.29;75.41
75972;BME280;64651;47.540;19.088;2023-04-01T01:54:50;99041.00;;;10.15;76.41
75972;BME280;64651;47.540;19.088;2023-04-01T01:59:56;99046.41;;;10.07;76.76
75972;BME280;64651;47.540;19.088;2023-04-01T02:05:01;99047.94;;;10.13;76.62
75972;BME280;64651;47.540;19.088;2023-04-01T02:10:05;99038.16;;;10.21;75.29
75972;BME280;64651;47.540;19.088;2023-04-01T02:15:10;99031.03;;;10.20;74.89
75972;BME280;64651;47.540;19.088;2023-04-01T02:20:20;99029.78;;;10.26;74.24
75972;BME280;64651;47.540;19.088;2023-04-01T02:25:27;99032.31;;;10.36;72.79
75972;BME280;64651;47.540;19.088;2023-04-01T02:30:32;99028.59;;;10.54;71.26
75972;BME280;64651;47.540;19.088;2023-04-01T02:35:36;99018.56;;;10.58;70.85
75972;BME280;64651;47.540;19.088;2023-04-01T02:40:49;99013.34;;;10.48;71.43
75972;BME280;64651;47.540;19.088;2023-04-01T02:45:53;99011.41;;;10.48;70.96
75972;BME280;64651;47.540;19.088;2023-04-01T02:50:55;99012.75;;;10.37;71.40
75972;BME280;64651;47.540;19.088;2023-04-01T02:55:58;99012.91;;;10.18;72.17
75972;BME280;64651;47.540;19.088;2023-04-01T03:01:00;99018.66;;;9.95;72.93
75972;BME280;64651;47.540;19.088;2023-04-01T03:06:12;99014.09;;;9.90;73.21
75972;BME280;64651;47.540;19.088;2023-04-01T03:11:14;99022.97;;;9.87;73.15
75972;BME280;64651;47.540;19.088;2023-04-01T03:16:16;99023.50;;;9.75;73.55
75972;BME280;64651;47.540;19.088;2023-04-01T03:21:23;99028.28;;;9.70;73.90
75972;BME280;64651;47.540;19.088;2023-04-01T03:26:25;99014.06;;;9.54;74.51
75972;BME280;64651;47.540;19.088;2023-04-01T03:31:31;99018.75;;;9.40;75.26
75972;BME280;64651;47.540;19.088;2023-04-01T03:36:33;99027.00;;;9.26;75.73
75972;BME280;64651;47.540;19.088;2023-04-01T03:41:36;99036.72;;;9.05;76.55
75972;BME280;64651;47.540;19.088;2023-04-01T03:46:40;99044.75;;;9.15;77.06
75972;BME280;64651;47.540;19.088;2023-04-01T03:51:43;99045.34;;;8.99;76.98
75972;BME280;64651;47.540;19.088;2023-04-01T03:56:46;99053.97;;;8.92;77.08
75972;BME280;64651;47.540;19.088;2023-04-01T04:01:48;99053.94;;;8.78;78.18
75972;BME280;64651;47.540;19.088;2023-04-01T04:06:50;99059.66;;;8.82;78.38
75972;BME280;64651;47.540;19.088;2023-04-01T04:11:53;99055.41;;;8.57;80.20
75972;BME280;64651;47.540;19.088;2023-04-01T04:16:55;99065.34;;;8.53;79.70
75972;BME280;64651;47.540;19.088;2023-04-01T04:21:57;99062.38;;;8.82;78.23
75972;BME280;64651;47.540;19.088;2023-04-01T04:27:02;99056.59;;;8.83;77.70
75972;BME280;64651;47.540;19.088;2023-04-01T04:32:05;99060.88;;;8.57;78.64
75972;BME280;64651;47.540;19.088;2023-04-01T04:37:07;99057.75;;;8.64;78.87
75972;BME280;64651;47.540;19.088;2023-04-01T04:42:10;99051.31;;;8.54;78.96
75972;BME280;64651;47.540;19.088;2023-04-01T04:47:13;99048.87;;;8.72;78.13
75972;BME280;64651;47.540;19.088;2023-04-01T04:52:16;99054.59;;;8.89;77.29
75972;BME280;64651;47.540;19.088;2023-04-01T04:57:18;99043.41;;;8.99;76.61
75972;BME280;64651;47.540;19.088;2023-04-01T05:02:23;99044.84;;;9.10;76.49
75972;BME280;64651;47.540;19.088;2023-04-01T05:07:27;99047.81;;;9.14;76.19
75972;BME280;64651;47.540;19.088;2023-04-01T05:12:29;99043.88;;;9.20;75.92
75972;BME280;64651;47.540;19.088;2023-04-01T05:17:31;99056.03;;;9.27;75.43
75972;BME280;64651;47.540;19.088;2023-04-01T05:22:35;99052.59;;;9.35;74.97
75972;BME280;64651;47.540;19.088;2023-04-01T05:27:37;99052.91;;;9.48;74.61
75972;BME280;64651;47.540;19.088;2023-04-01T05:32:39;99049.25;;;9.66;73.49
75972;BME280;64651;47.540;19.088;2023-04-01T05:37:42;99061.63;;;9.77;72.70
75972;BME280;64651;47.540;19.088;2023-04-01T05:42:44;99061.81;;;9.94;71.83
75972;BME280;64651;47.540;19.088;2023-04-01T05:47:46;99064.84;;;10.06;70.88
75972;BME280;64651;47.540;19.088;2023-04-01T05:52:48;99066.66;;;10.25;70.20
75972;BME280;64651;47.540;19.088;2023-04-01T05:57:51;99063.94;;;10.47;69.50
75972;BME280;64651;47.540;19.088;2023-04-01T06:02:53;99062.00;;;10.70;68.14
75972;BME280;64651;47.540;19.088;2023-04-01T06:08:00;99068.63;;;10.91;66.78
75972;BME280;64651;47.540;19.088;2023-04-01T06:18:48;99064.59;;;11.67;64.86
75972;BME280;64651;47.540;19.088;2023-04-01T06:29:23;99069.75;;;11.52;64.14
75972;BME280;64651;47.540;19.088;2023-04-01T06:50:59;99078.22;;;11.72;64.07
75972;BME280;64651;47.540;19.088;2023-04-01T06:56:18;99079.28;;;11.76;63.67
75972;BME280;64651;47.540;19.088;2023-04-01T07:01:49;99077.63;;;11.75;63.41
75972;BME280;64651;47.540;19.088;2023-04-01T07:06:54;99083.50;;;11.83;63.33
75972;BME280;64651;47.540;19.088;2023-04-01T07:12:02;99085.31;;;12.04;62.94
75972;BME280;64651;47.540;19.088;2023-04-01T07:17:23;99081.25;;;12.02;62.15
75972;BME280;64651;47.540;19.088;2023-04-01T07:22:35;99073.84;;;12.37;61.02
75972;BME280;64651;47.540;19.088;2023-04-01T07:27:43;99080.03;;;12.59;60.64
75972;BME280;64651;47.540;19.088;2023-04-01T07:49:15;99079.22;;;13.49;57.06
75972;BME280;64651;47.540;19.088;2023-04-01T08:05:22;99083.81;;;14.03;54.27
75972;BME280;64651;47.540;19.088;2023-04-01T08:10:51;99081.00;;;14.95;51.84
75972;BME280;64651;47.540;19.088;2023-04-01T08:21:28;99089.41;;;16.01;49.56
75972;BME280;64651;47.540;19.088;2023-04-01T08:26:37;99092.16;;;16.89;47.53
75972;BME280;64651;47.540;19.088;2023-04-01T08:31:51;99102.72;;;16.72;47.33
75972;BME280;64651;47.540;19.088;2023-04-01T08:37:01;99093.97;;;16.70;47.00
75972;BME280;64651;47.540;19.088;2023-04-01T08:48:16;99092.41;;;16.20;48.36
75972;BME280;64651;47.540;19.088;2023-04-01T08:53:59;99078.91;;;16.71;47.03
75972;BME280;64651;47.540;19.088;2023-04-01T09:43:05;99089.56;;;16.69;46.47
75972;BME280;64651;47.540;19.088;2023-04-01T09:53:33;99097.47;;;14.29;54.09
75972;BME280;64651;47.540;19.088;2023-04-01T10:20:46;99094.87;;;15.40;52.00
75972;BME280;64651;47.540;19.088;2023-04-01T10:31:29;99109.56;;;13.95;55.33
75972;BME280;64651;47.540;19.088;2023-04-01T11:48:58;99107.00;;;13.90;54.65
75972;BME280;64651;47.540;19.088;2023-04-01T12:05:03;99105.34;;;13.60;56.80
75972;BME280;64651;47.540;19.088;2023-04-01T12:10:45;99099.63;;;14.23;54.55
75972;BME280;64651;47.540;19.088;2023-04-01T12:16:15;99098.72;;;15.48;51.08
75972;BME280;64651;47.540;19.088;2023-04-01T12:27:04;99092.75;;;17.70;45.49
75972;BME280;64651;47.540;19.088;2023-04-01T12:43:52;99101.22;;;16.10;48.06
75972;BME280;64651;47.540;19.088;2023-04-01T13:10:00;99082.91;;;20.82;35.12
75972;BME280;64651;47.540;19.088;2023-04-01T13:47:40;99069.00;;;26.01;25.97
75972;BME280;64651;47.540;19.088;2023-04-01T14:35:41;99071.75;;;25.53;26.72
75972;BME280;64651;47.540;19.088;2023-04-01T14:46:17;99060.09;;;23.36;29.63
75972;BME280;64651;47.540;19.088;2023-04-01T14:51:32;99059.16;;;25.02;27.55
75972;BME280;64651;47.540;19.088;2023-04-01T15:02:33;99060.19;;;24.21;28.97
75972;BME280;64651;47.540;19.088;2023-04-01T15:34:41;99083.94;;;21.34;34.39
75972;BME280;64651;47.540;19.088;2023-04-01T15:55:57;99083.88;;;17.05;41.90
75972;BME280;64651;47.540;19.088;2023-04-01T16:22:26;99108.16;;;16.28;41.10
75972;BME280;64651;47.540;19.088;2023-04-01T16:27:50;99111.84;;;16.20;40.41
75972;BME280;64651;47.540;19.088;2023-04-01T16:33:10;99119.59;;;16.27;40.98
75972;BME280;64651;47.540;19.088;2023-04-01T16:38:33;99129.19;;;16.05;41.36
75972;BME280;64651;47.540;19.088;2023-04-01T16:43:44;99121.44;;;16.10;42.72
75972;BME280;64651;47.540;19.088;2023-04-01T16:49:04;99123.41;;;15.86;44.82
75972;BME280;64651;47.540;19.088;2023-04-01T17:05:08;99140.41;;;14.44;49.53
75972;BME280;64651;47.540;19.088;2023-04-01T17:15:49;99152.28;;;13.77;51.25
75972;BME280;64651;47.540;19.088;2023-04-01T17:21:17;99152.22;;;13.48;52.56
75972;BME280;64651;47.540;19.088;2023-04-01T17:42:57;99174.16;;;12.75;55.77
75972;BME280;64651;47.540;19.088;2023-04-01T17:53:39;99185.37;;;12.62;56.64
75972;BME280;64651;47.540;19.088;2023-04-01T17:59:24;99182.91;;;12.43;56.35
75972;BME280;64651;47.540;19.088;2023-04-01T18:04:44;99191.81;;;12.31;57.30
75972;BME280;64651;47.540;19.088;2023-04-01T18:09:57;99204.53;;;12.01;58.53
75972;BME280;64651;47.540;19.088;2023-04-01T18:20:43;99222.78;;;11.89;58.46
75972;BME280;64651;47.540;19.088;2023-04-01T18:25:54;99224.88;;;11.92;57.94
75972;BME280;64651;47.540;19.088;2023-04-01T18:46:59;99247.66;;;11.75;58.72
75972;BME280;64651;47.540;19.088;2023-04-01T19:08:30;99266.06;;;11.44;60.06
75972;BME280;64651;47.540;19.088;2023-04-01T19:19:11;99256.44;;;11.32;60.79
75972;BME280;64651;47.540;19.088;2023-04-01T19:25:12;99260.31;;;11.31;61.05
75972;BME280;64651;47.540;19.088;2023-04-01T19:30:57;99265.94;;;11.26;60.79
75972;BME280;64651;47.540;19.088;2023-04-01T19:46:51;99280.59;;;10.99;62.01
75972;BME280;64651;47.540;19.088;2023-04-01T20:02:58;99286.94;;;10.86;62.94
75972;BME280;64651;47.540;19.088;2023-04-01T20:08:22;99289.78;;;10.95;63.31
75972;BME280;64651;47.540;19.088;2023-04-01T20:18:48;99286.97;;;10.59;64.81
75972;BME280;64651;47.540;19.088;2023-04-01T20:34:31;99289.16;;;10.02;67.06
75972;BME280;64651;47.540;19.088;2023-04-01T20:49:55;99300.16;;;9.56;69.35
75972;BME280;64651;47.540;19.088;2023-04-01T21:00:45;99316.47;;;9.48;70.06
75972;BME280;64651;47.540;19.088;2023-04-01T21:27:42;99328.94;;;9.40;71.36
75972;BME280;64651;47.540;19.088;2023-04-01T21:33:10;99332.22;;;9.23;71.92
75972;BME280;64651;47.540;19.088;2023-04-01T22:00:14;99349.19;;;9.63;69.63
75972;BME280;64651;47.540;19.088;2023-04-01T22:32:06;99359.69;;;10.07;66.15
75972;BME280;64651;47.540;19.088;2023-04-01T22:59:23;99402.19;;;9.63;68.52
75972;BME280;64651;47.540;19.088;2023-04-01T23:04:32;99400.94;;;9.56;69.04
75972;BME280;64651;47.540;19.088;2023-04-01T23:09:36;99399.94;;;9.28;69.75
75972;BME280;64651;47.540;19.088;2023-04-01T23:14:44;99410.25;;;9.17;70.52
75972;BME280;64651;47.540;19.088;2023-04-01T23:40:55;99423.59;;;9.24;70.87
75972;BME280;64651;47.540;19.088;2023-04-01T23:46:03;99423.69;;;9.19;71.43
75972;BME280;64651;47.540;19.088;2023-04-01T23:51:36;99421.19;;;8.99;72.27
75972;BME280;64651;47.540;19.088;2023-04-01T23:56:44;99418.97;;;8.77;73.20
